sensor_id;sensor_type;location;lat;lon;timestamp;P1;durP1;ratioP1;P2;durP2;ratioP2
32242;SDS011;18731;42.830;24.390;2023-04-24T03:01:58;10.20;;;6.65;;
32242;SDS011;18731;42.830;24.390;2023-04-24T03:04:24;9.60;;;6.22;;
32242;SDS011;18731;42.830;24.390;2023-04-24T03:06:51;10.43;;;5.70;;
32242;SDS011;18731;42.830;24.390;2023-04-24T03:09:19;13.25;;;6.53;;
32242;SDS011;18731;42.830;24.390;2023-04-24T03:11:46;9.38;;;5.68;;
32242;SDS011;18731;42.830;24.390;2023-04-24T03:14:11;13.63;;;6.50;;
32242;SDS011;18731;42.830;24.390;2023-04-24T03:16:37;12.50;;;7.35;;
32242;SDS011;18731;42.830;24.390;2023-04-24T03:19:03;11.18;;;6.80;;
32242;SDS011;18731;42.830;24.390;2023-04-24T03:21:29;11.02;;;6.63;;
32242;SDS011;18731;42.830;24.390;2023-04-24T03:23:54;14.70;;;7.40;;
32242;SDS011;18731;42.830;24.390;2023-04-24T03:26:20;11.30;;;7.28;;
32242;SDS011;18731;42.830;24.390;2023-04-24T03:28:45;10.38;;;7.28;;
32242;SDS011;18731;42.830;24.390;2023-04-24T03:31:11;10.63;;;7.40;;
32242;SDS011;18731;42.830;24.390;2023-04-24T03:33:37;11.52;;;7.43;;
32242;SDS011;18731;42.830;24.390;2023-04-24T03:36:02;14.95;;;7.40;;
32242;SDS011;18731;42.830;24.390;2023-04-24T03:38:30;21.20;;;13.02;;
32242;SDS011;18731;42.830;24.390;2023-04-24T03:40:55;15.68;;;8.57;;
32242;SDS011;18731;42.830;24.390;2023-04-24T03:43:21;23.15;;;8.05;;
32242;SDS011;18731;42.830;24.390;2023-04-24T03:45:47;12.63;;;8.50;;
32242;SDS011;18731;42.830;24.390;2023-04-24T03:48:12;19.60;;;13.88;;
32242;SDS011;18731;42.830;24.390;2023-04-24T03:50:38;12.20;;;8.70;;
32242;SDS011;18731;42.830;24.390;2023-04-24T03:53:03;13.13;;;7.82;;
32242;SDS011;18731;42.830;24.390;2023-04-24T03:55:29;15.27;;;7.75;;
32242;SDS011;18731;42.830;24.390;2023-04-24T03:57:55;17.05;;;9.30;;
32242;SDS011;18731;42.830;24.390;2023-04-24T04:00:20;20.27;;;13.05;;
32242;SDS011;18731;42.830;24.390;2023-04-24T04:02:46;31.42;;;16.40;;
32242;SDS011;18731;42.830;24.390;2023-04-24T04:05:12;30.58;;;17.67;;
32242;SDS011;18731;42.830;24.390;2023-04-24T04:07:37;29.40;;;18.30;;
32242;SDS011;18731;42.830;24.390;2023-04-24T04:10:03;20.98;;;12.93;;
32242;SDS011;18731;42.830;24.390;2023-04-24T04:12:29;23.73;;;13.00;;
32242;SDS011;18731;42.830;24.390;2023-04-24T04:14:55;26.23;;;11.88;;
32242;SDS011;18731;42.830;24.390;2023-04-24T04:17:21;15.13;;;10.23;;
32242;SDS011;18731;42.830;24.390;2023-04-24T04:19:46;14.27;;;10.23;;
32242;SDS011;18731;42.830;24.390;2023-04-24T04:22:12;16.35;;;10.60;;
32242;SDS011;18731;42.830;24.390;2023-04-24T04:24:37;16.85;;;10.30;;
32242;SDS011;18731;42.830;24.390;2023-04-24T04:27:06;21.23;;;11.05;;
32242;SDS011;18731;42.830;24.390;2023-04-24T04:29:33;36.17;;;22.40;;
32242;SDS011;18731;42.830;24.390;2023-04-24T04:31:59;42.00;;;26.20;;
32242;SDS011;18731;42.830;24.390;2023-04-24T04:34:26;46.13;;;27.23;;
32242;SDS011;18731;42.830;24.390;2023-04-24T04:36:52;57.78;;;34.00;;
32242;SDS011;18731;42.830;24.390;2023-04-24T04:39:17;38.80;;;25.15;;
32242;SDS011;18731;42.830;24.390;2023-04-24T04:41:43;32.38;;;20.42;;
32242;SDS011;18731;42.830;24.390;2023-04-24T04:44:11;40.40;;;24.80;;
32242;SDS011;18731;42.830;24.390;2023-04-24T04:46:37;45.33;;;26.35;;
32242;SDS011;18731;42.830;24.390;2023-04-24T04:49:03;45.88;;;28.55;;
32242;SDS011;18731;42.830;24.390;2023-04-24T04:51:29;48.45;;;28.23;;
32242;SDS011;18731;42.830;24.390;2023-04-24T04:53:56;42.08;;;26.35;;
32242;SDS011;18731;42.830;24.390;2023-04-24T04:56:21;39.13;;;24.27;;
32242;SDS011;18731;42.830;24.390;2023-04-24T04:58:47;39.58;;;23.13;;
32242;SDS011;18731;42.830;24.390;2023-04-24T05:01:12;38.22;;;24.27;;
32242;SDS011;18731;42.830;24.390;2023-04-24T05:03:38;39.22;;;21.92;;
32242;SDS011;18731;42.830;24.390;2023-04-24T05:06:04;37.00;;;23.40;;
32242;SDS011;18731;42.830;24.390;2023-04-24T05:08:30;40.70;;;25.85;;
32242;SDS011;18731;42.830;24.390;2023-04-24T05:10:55;41.45;;;26.52;;
32242;SDS011;18731;42.830;24.390;2023-04-24T05:13:21;38.33;;;25.77;;
32242;SDS011;18731;42.830;24.390;2023-04-24T05:15:47;36.78;;;24.10;;
32242;SDS011;18731;42.830;24.390;2023-04-24T05:18:12;20.77;;;14.07;;
32242;SDS011;18731;42.830;24.390;2023-04-24T05:20:38;27.95;;;18.10;;
32242;SDS011;18731;42.830;24.390;2023-04-24T05:23:04;33.75;;;21.52;;
32242;SDS011;18731;42.830;24.390;2023-04-24T05:25:30;35.20;;;17.10;;
32242;SDS011;18731;42.830;24.390;2023-04-24T05:28:00;23.30;;;14.63;;
32242;SDS011;18731;42.830;24.390;2023-04-24T05:30:26;18.67;;;12.32;;
32242;SDS011;18731;42.830;24.390;2023-04-24T05:32:52;19.38;;;11.30;;
32242;SDS011;18731;42.830;24.390;2023-04-24T05:35:17;25.50;;;13.38;;
32242;SDS011;18731;42.830;24.390;2023-04-24T05:37:44;27.08;;;12.77;;
32242;SDS011;18731;42.830;24.390;2023-04-24T05:40:09;19.25;;;10.30;;
32242;SDS011;18731;42.830;24.390;2023-04-24T05:42:36;22.35;;;10.50;;
32242;SDS011;18731;42.830;24.390;2023-04-24T05:45:02;16.00;;;9.20;;
32242;SDS011;18731;42.830;24.390;2023-04-24T05:47:28;19.52;;;10.80;;
32242;SDS011;18731;42.830;24.390;2023-04-24T05:49:54;22.98;;;11.00;;
32242;SDS011;18731;42.830;24.390;2023-04-24T05:52:19;28.30;;;17.73;;
32242;SDS011;18731;42.830;24.390;2023-04-24T05:54:45;22.77;;;14.70;;
32242;SDS011;18731;42.830;24.390;2023-04-24T05:57:11;29.25;;;14.68;;
32242;SDS011;18731;42.830;24.390;2023-04-24T05:59:37;24.23;;;12.63;;
32242;SDS011;18731;42.830;24.390;2023-04-24T06:02:06;11.73;;;8.35;;
32242;SDS011;18731;42.830;24.390;2023-04-24T06:04:32;14.38;;;6.88;;
32242;SDS011;18731;42.830;24.390;2023-04-24T06:06:59;13.30;;;6.80;;
32242;SDS011;18731;42.830;24.390;2023-04-24T06:09:25;14.57;;;8.20;;
32242;SDS011;18731;42.830;24.390;2023-04-24T06:11:51;13.15;;;7.13;;
32242;SDS011;18731;42.830;24.390;2023-04-24T06:14:19;12.30;;;6.78;;
32242;SDS011;18731;42.830;24.390;2023-04-24T06:16:46;14.38;;;7.63;;
32242;SDS011;18731;42.830;24.390;2023-04-24T06:19:11;13.95;;;7.20;;
32242;SDS011;18731;42.830;24.390;2023-04-24T06:21:37;11.77;;;6.78;;
32242;SDS011;18731;42.830;24.390;2023-04-24T06:24:03;9.35;;;6.57;;
32242;SDS011;18731;42.830;24.390;2023-04-24T06:26:29;9.85;;;6.25;;
32242;SDS011;18731;42.830;24.390;2023-04-24T06:28:55;8.52;;;6.10;;
32242;SDS011;18731;42.830;24.390;2023-04-24T06:31:23;7.47;;;4.22;;
32242;SDS011;18731;42.830;24.390;2023-04-24T06:33:49;11.80;;;5.05;;
32242;SDS011;18731;42.830;24.390;2023-04-24T06:36:15;9.90;;;5.25;;
32242;SDS011;18731;42.830;24.390;2023-04-24T06:38:41;9.48;;;5.10;;
32242;SDS011;18731;42.830;24.390;2023-04-24T06:41:06;12.45;;;5.03;;
32242;SDS011;18731;42.830;24.390;2023-04-24T06:43:33;9.65;;;4.63;;
32242;SDS011;18731;42.830;24.390;2023-04-24T06:45:59;8.68;;;5.40;;
32242;SDS011;18731;42.830;24.390;2023-04-24T06:48:25;9.00;;;5.03;;
32242;SDS011;18731;42.830;24.390;2023-04-24T06:50:51;13.48;;;6.00;;
32242;SDS011;18731;42.830;24.390;2023-04-24T06:53:18;12.00;;;5.90;;
32242;SDS011;18731;42.830;24.390;2023-04-24T06:55:43;14.70;;;6.15;;
32242;SDS011;18731;42.830;24.390;2023-04-24T06:58:13;12.23;;;6.97;;
32242;SDS011;18731;42.830;24.390;2023-04-24T07:00:40;22.08;;;8.73;;
32242;SDS011;18731;42.830;24.390;2023-04-24T07:03:06;16.73;;;6.53;;
32242;SDS011;18731;42.830;24.390;2023-04-24T07:05:31;12.07;;;4.10;;
32242;SDS011;18731;42.830;24.390;2023-04-24T07:07:59;10.20;;;4.05;;
32242;SDS011;18731;42.830;24.390;2023-04-24T07:10:25;15.45;;;4.10;;
32242;SDS011;18731;42.830;24.390;2023-04-24T07:12:54;8.32;;;3.88;;
32242;SDS011;18731;42.830;24.390;2023-04-24T07:15:21;7.10;;;3.75;;
32242;SDS011;18731;42.830;24.390;2023-04-24T07:17:48;5.40;;;3.47;;
32242;SDS011;18731;42.830;24.390;2023-04-24T07:20:14;10.05;;;4.25;;
32242;SDS011;18731;42.830;24.390;2023-04-24T07:22:40;9.18;;;4.00;;
32242;SDS011;18731;42.830;24.390;2023-04-24T07:25:06;9.98;;;3.92;;
32242;SDS011;18731;42.830;24.390;2023-04-24T07:27:33;6.22;;;3.47;;
32242;SDS011;18731;42.830;24.390;2023-04-24T07:30:00;9.55;;;4.47;;
32242;SDS011;18731;42.830;24.390;2023-04-24T07:32:26;7.18;;;4.60;;
32242;SDS011;18731;42.830;24.390;2023-04-24T07:34:51;12.63;;;4.85;;
32242;SDS011;18731;42.830;24.390;2023-04-24T07:37:17;8.07;;;4.10;;
32242;SDS011;18731;42.830;24.390;2023-04-24T07:39:43;6.95;;;3.80;;
32242;SDS011;18731;42.830;24.390;2023-04-24T07:42:08;7.47;;;3.80;;
32242;SDS011;18731;42.830;24.390;2023-04-24T07:44:34;6.60;;;3.75;;
32242;SDS011;18731;42.830;24.390;2023-04-24T07:47:01;4.93;;;3.10;;
32242;SDS011;18731;42.830;24.390;2023-04-24T07:49:31;5.40;;;3.30;;
32242;SDS011;18731;42.830;24.390;2023-04-24T07:51:59;7.97;;;3.20;;
32242;SDS011;18731;42.830;24.390;2023-04-24T07:54:27;4.75;;;2.90;;
32242;SDS011;18731;42.830;24.390;2023-04-24T07:56:53;7.97;;;3.10;;
32242;SDS011;18731;42.830;24.390;2023-04-24T07:59:19;6.82;;;3.25;;
32242;SDS011;18731;42.830;24.390;2023-04-24T08:01:45;6.40;;;3.17;;
32242;SDS011;18731;42.830;24.390;2023-04-24T08:04:10;10.82;;;3.28;;
32242;SDS011;18731;42.830;24.390;2023-04-24T08:06:36;9.63;;;3.60;;
32242;SDS011;18731;42.830;24.390;2023-04-24T08:09:02;10.20;;;4.05;;
32242;SDS011;18731;42.830;24.390;2023-04-24T08:11:28;10.23;;;4.85;;
32242;SDS011;18731;42.830;24.390;2023-04-24T08:13:53;7.50;;;3.70;;
32242;SDS011;18731;42.830;24.390;2023-04-24T08:16:19;4.93;;;3.67;;
32242;SDS011;18731;42.830;24.390;2023-04-24T08:18:45;6.55;;;3.70;;
32242;SDS011;18731;42.830;24.390;2023-04-24T08:21:11;6.88;;;3.83;;
32242;SDS011;18731;42.830;24.390;2023-04-24T08:23:41;5.03;;;3.40;;
32242;SDS011;18731;42.830;24.390;2023-04-24T08:26:07;11.23;;;4.22;;
32242;SDS011;18731;42.830;24.390;2023-04-24T08:28:33;7.53;;;3.78;;
32242;SDS011;18731;42.830;24.390;2023-04-24T08:30:59;6.75;;;3.55;;
32242;SDS011;18731;42.830;24.390;2023-04-24T08:33:24;10.45;;;3.70;;
32242;SDS011;18731;42.830;24.390;2023-04-24T08:35:50;5.78;;;3.65;;
32242;SDS011;18731;42.830;24.390;2023-04-24T08:38:16;9.60;;;3.88;;
32242;SDS011;18731;42.830;24.390;2023-04-24T08:40:42;6.30;;;3.25;;
32242;SDS011;18731;42.830;24.390;2023-04-24T08:43:08;3.90;;;3.42;;
32242;SDS011;18731;42.830;24.390;2023-04-24T08:45:35;7.43;;;3.40;;
32242;SDS011;18731;42.830;24.390;2023-04-24T08:48:01;5.57;;;3.50;;
32242;SDS011;18731;42.830;24.390;2023-04-24T08:50:29;6.88;;;3.30;;
32242;SDS011;18731;42.830;24.390;2023-04-24T08:52:56;6.45;;;3.10;;
32242;SDS011;18731;42.830;24.390;2023-04-24T08:55:22;7.15;;;3.35;;
32242;SDS011;18731;42.830;24.390;2023-04-24T08:57:50;3.15;;;2.85;;
32242;SDS011;18731;42.830;24.390;2023-04-24T09:00:21;7.80;;;3.30;;
32242;SDS011;18731;42.830;24.390;2023-04-24T09:02:48;6.47;;;3.00;;
32242;SDS011;18731;42.830;24.390;2023-04-24T09:05:18;6.88;;;2.95;;
32242;SDS011;18731;42.830;24.390;2023-04-24T09:07:49;8.75;;;3.03;;
32242;SDS011;18731;42.830;24.390;2023-04-24T09:10:18;11.23;;;3.00;;
32242;SDS011;18731;42.830;24.390;2023-04-24T09:12:45;5.00;;;3.38;;
32242;SDS011;18731;42.830;24.390;2023-04-24T09:15:12;8.05;;;3.25;;
32242;SDS011;18731;42.830;24.390;2023-04-24T09:17:37;7.90;;;3.45;;
32242;SDS011;18731;42.830;24.390;2023-04-24T09:20:04;20.85;;;3.53;;
32242;SDS011;18731;42.830;24.390;2023-04-24T09:22:30;9.35;;;3.22;;
32242;SDS011;18731;42.830;24.390;2023-04-24T09:25:03;18.85;;;3.90;;
32242;SDS011;18731;42.830;24.390;2023-04-24T09:27:32;6.93;;;3.10;;
32242;SDS011;18731;42.830;24.390;2023-04-24T09:29:59;7.30;;;3.17;;
32242;SDS011;18731;42.830;24.390;2023-04-24T09:32:26;3.92;;;2.92;;
32242;SDS011;18731;42.830;24.390;2023-04-24T09:35:13;6.50;;;3.30;;
32242;SDS011;18731;42.830;24.390;2023-04-24T09:37:41;7.13;;;3.05;;
32242;SDS011;18731;42.830;24.390;2023-04-24T09:42:56;4.32;;;2.78;;
32242;SDS011;18731;42.830;24.390;2023-04-24T09:45:42;5.55;;;3.25;;
32242;SDS011;18731;42.830;24.390;2023-04-24T09:48:10;8.50;;;3.33;;
32242;SDS011;18731;42.830;24.390;2023-04-24T09:50:36;13.27;;;2.90;;
32242;SDS011;18731;42.830;24.390;2023-04-24T09:53:02;6.47;;;3.15;;
32242;SDS011;18731;42.830;24.390;2023-04-24T09:55:30;3.63;;;2.92;;
32242;SDS011;18731;42.830;24.390;2023-04-24T09:57:57;7.47;;;3.10;;
32242;SDS011;18731;42.830;24.390;2023-04-24T10:00:28;5.13;;;2.75;;
32242;SDS011;18731;42.830;24.390;2023-04-24T10:02:59;5.32;;;2.92;;
32242;SDS011;18731;42.830;24.390;2023-04-24T10:08:02;4.53;;;3.13;;
32242;SDS011;18731;42.830;24.390;2023-04-24T10:10:31;5.20;;;2.80;;
32242;SDS011;18731;42.830;24.390;2023-04-24T10:12:58;6.30;;;2.70;;
32242;SDS011;18731;42.830;24.390;2023-04-24T10:15:25;5.10;;;2.70;;
32242;SDS011;18731;42.830;24.390;2023-04-24T10:17:52;4.57;;;2.80;;
32242;SDS011;18731;42.830;24.390;2023-04-24T10:20:21;6.13;;;3.05;;
32242;SDS011;18731;42.830;24.390;2023-04-24T10:22:49;7.70;;;3.20;;
32242;SDS011;18731;42.830;24.390;2023-04-24T10:25:19;4.45;;;2.70;;
32242;SDS011;18731;42.830;24.390;2023-04-24T10:27:47;7.70;;;3.10;;
32242;SDS011;18731;42.830;24.390;2023-04-24T10:30:14;8.40;;;2.95;;
32242;SDS011;18731;42.830;24.390;2023-04-24T10:32:40;11.07;;;2.50;;
32242;SDS011;18731;42.830;24.390;2023-04-24T10:35:06;6.85;;;2.90;;
32242;SDS011;18731;42.830;24.390;2023-04-24T10:37:40;4.53;;;2.95;;
32242;SDS011;18731;42.830;24.390;2023-04-24T10:40:09;6.07;;;2.85;;
32242;SDS011;18731;42.830;24.390;2023-04-24T10:42:39;2.65;;;2.45;;
32242;SDS011;18731;42.830;24.390;2023-04-24T10:45:11;9.45;;;2.72;;
32242;SDS011;18731;42.830;24.390;2023-04-24T10:47:42;5.18;;;2.90;;
32242;SDS011;18731;42.830;24.390;2023-04-24T10:50:15;2.80;;;2.47;;
32242;SDS011;18731;42.830;24.390;2023-04-24T10:52:48;4.88;;;2.67;;
32242;SDS011;18731;42.830;24.390;2023-04-24T10:55:40;9.82;;;3.05;;
32242;SDS011;18731;42.830;24.390;2023-04-24T10:58:24;7.15;;;2.70;;
32242;SDS011;18731;42.830;24.390;2023-04-24T11:01:00;6.60;;;2.80;;
32242;SDS011;18731;42.830;24.390;2023-04-24T11:03:26;4.90;;;2.60;;
32242;SDS011;18731;42.830;24.390;2023-04-24T11:11:13;5.13;;;2.47;;
32242;SDS011;18731;42.830;24.390;2023-04-24T11:16:25;4.43;;;2.65;;
32242;SDS011;18731;42.830;24.390;2023-04-24T11:34:46;6.90;;;4.70;;
32242;SDS011;18731;42.830;24.390;2023-04-24T11:37:21;5.90;;;3.10;;
32242;SDS011;18731;42.830;24.390;2023-04-24T11:39:52;7.55;;;3.05;;
32242;SDS011;18731;42.830;24.390;2023-04-24T11:42:20;5.93;;;3.10;;
32242;SDS011;18731;42.830;24.390;2023-04-24T11:44:47;5.03;;;3.17;;
32242;SDS011;18731;42.830;24.390;2023-04-24T11:47:15;7.22;;;3.00;;
32242;SDS011;18731;42.830;24.390;2023-04-24T11:49:41;6.78;;;3.13;;
32242;SDS011;18731;42.830;24.390;2023-04-24T11:52:06;8.18;;;3.35;;
32242;SDS011;18731;42.830;24.390;2023-04-24T11:54:32;9.15;;;3.33;;
32242;SDS011;18731;42.830;24.390;2023-04-24T11:56:58;5.35;;;2.80;;
32242;SDS011;18731;42.830;24.390;2023-04-24T11:59:23;6.70;;;2.80;;
32242;SDS011;18731;42.830;24.390;2023-04-24T12:01:49;4.93;;;3.13;;
32242;SDS011;18731;42.830;24.390;2023-04-24T12:04:16;10.52;;;3.78;;
32242;SDS011;18731;42.830;24.390;2023-04-24T12:07:02;6.28;;;3.28;;
32242;SDS011;18731;42.830;24.390;2023-04-24T12:09:28;8.27;;;3.10;;
32242;SDS011;18731;42.830;24.390;2023-04-24T12:12:05;3.50;;;2.65;;
32242;SDS011;18731;42.830;24.390;2023-04-24T12:14:31;6.00;;;3.00;;
32242;SDS011;18731;42.830;24.390;2023-04-24T12:16:57;5.68;;;3.10;;
32242;SDS011;18731;42.830;24.390;2023-04-24T12:19:23;6.38;;;3.15;;
32242;SDS011;18731;42.830;24.390;2023-04-24T12:21:59;6.15;;;3.42;;
32242;SDS011;18731;42.830;24.390;2023-04-24T12:24:25;9.48;;;4.88;;
32242;SDS011;18731;42.830;24.390;2023-04-24T12:26:51;10.75;;;4.20;;
32242;SDS011;18731;42.830;24.390;2023-04-24T12:29:22;9.23;;;4.70;;
32242;SDS011;18731;42.830;24.390;2023-04-24T12:31:48;6.47;;;3.42;;
32242;SDS011;18731;42.830;24.390;2023-04-24T12:34:20;5.38;;;3.20;;
32242;SDS011;18731;42.830;24.390;2023-04-24T12:36:47;3.83;;;2.92;;
32242;SDS011;18731;42.830;24.390;2023-04-24T12:39:17;6.32;;;3.15;;
32242;SDS011;18731;42.830;24.390;2023-04-24T12:42:25;5.00;;;3.20;;
32242;SDS011;18731;42.830;24.390;2023-04-24T12:44:36;5.03;;;3.30;;
32242;SDS011;18731;42.830;24.390;2023-04-24T12:47:02;6.30;;;3.25;;
32242;SDS011;18731;42.830;24.390;2023-04-24T12:49:31;6.65;;;3.42;;
32242;SDS011;18731;42.830;24.390;2023-04-24T12:51:57;5.75;;;3.40;;
32242;SDS011;18731;42.830;24.390;2023-04-24T12:54:22;5.45;;;3.47;;
32242;SDS011;18731;42.830;24.390;2023-04-24T12:56:48;5.78;;;3.10;;
32242;SDS011;18731;42.830;24.390;2023-04-24T12:59:13;9.35;;;3.17;;
32242;SDS011;18731;42.830;24.390;2023-04-24T13:01:40;5.80;;;4.53;;
32242;SDS011;18731;42.830;24.390;2023-04-24T13:04:06;8.60;;;3.65;;
32242;SDS011;18731;42.830;24.390;2023-04-24T13:06:31;8.95;;;3.10;;
32242;SDS011;18731;42.830;24.390;2023-04-24T13:08:58;13.80;;;5.97;;
32242;SDS011;18731;42.830;24.390;2023-04-24T13:11:23;6.82;;;4.25;;
32242;SDS011;18731;42.830;24.390;2023-04-24T13:13:49;5.70;;;3.70;;
32242;SDS011;18731;42.830;24.390;2023-04-24T13:16:15;10.80;;;4.20;;
32242;SDS011;18731;42.830;24.390;2023-04-24T13:18:41;7.38;;;4.40;;
32242;SDS011;18731;42.830;24.390;2023-04-24T13:21:07;12.10;;;4.75;;
32242;SDS011;18731;42.830;24.390;2023-04-24T13:23:32;9.35;;;3.92;;
32242;SDS011;18731;42.830;24.390;2023-04-24T13:25:59;9.07;;;4.32;;
32242;SDS011;18731;42.830;24.390;2023-04-24T13:28:26;11.57;;;5.38;;
32242;SDS011;18731;42.830;24.390;2023-04-24T13:30:53;8.13;;;4.95;;
32242;SDS011;18731;42.830;24.390;2023-04-24T13:33:19;12.00;;;4.47;;
32242;SDS011;18731;42.830;24.390;2023-04-24T13:35:45;9.13;;;5.88;;
32242;SDS011;18731;42.830;24.390;2023-04-24T13:38:10;5.32;;;3.45;;
32242;SDS011;18731;42.830;24.390;2023-04-24T13:40:36;11.13;;;4.63;;
32242;SDS011;18731;42.830;24.390;2023-04-24T13:43:01;9.02;;;4.53;;
32242;SDS011;18731;42.830;24.390;2023-04-24T13:45:27;17.70;;;6.50;;
32242;SDS011;18731;42.830;24.390;2023-04-24T13:47:53;19.80;;;7.40;;
32242;SDS011;18731;42.830;24.390;2023-04-24T13:50:19;12.13;;;6.28;;
32242;SDS011;18731;42.830;24.390;2023-04-24T13:52:45;13.20;;;6.95;;
32242;SDS011;18731;42.830;24.390;2023-04-24T13:55:11;18.35;;;8.25;;
32242;SDS011;18731;42.830;24.390;2023-04-24T13:57:37;17.88;;;9.90;;
32242;SDS011;18731;42.830;24.390;2023-04-24T14:00:02;13.45;;;8.70;;
32242;SDS011;18731;42.830;24.390;2023-04-24T14:02:29;12.43;;;6.20;;
32242;SDS011;18731;42.830;24.390;2023-04-24T14:04:55;8.40;;;6.20;;
32242;SDS011;18731;42.830;24.390;2023-04-24T14:07:21;7.22;;;3.67;;
32242;SDS011;18731;42.830;24.390;2023-04-24T14:09:47;10.38;;;4.82;;
32242;SDS011;18731;42.830;24.390;2023-04-24T14:12:12;12.10;;;6.82;;
32242;SDS011;18731;42.830;24.390;2023-04-24T14:14:39;18.40;;;6.38;;
32242;SDS011;18731;42.830;24.390;2023-04-24T14:17:05;27.80;;;7.90;;
32242;SDS011;18731;42.830;24.390;2023-04-24T14:19:31;21.55;;;8.32;;
32242;SDS011;18731;42.830;24.390;2023-04-24T14:21:57;20.50;;;8.85;;
32242;SDS011;18731;42.830;24.390;2023-04-24T14:24:23;16.23;;;7.22;;
32242;SDS011;18731;42.830;24.390;2023-04-24T14:26:49;13.73;;;6.70;;
32242;SDS011;18731;42.830;24.390;2023-04-24T14:29:15;15.32;;;8.60;;
32242;SDS011;18731;42.830;24.390;2023-04-24T14:31:41;12.57;;;7.05;;
32242;SDS011;18731;42.830;24.390;2023-04-24T14:34:07;15.77;;;7.57;;
32242;SDS011;18731;42.830;24.390;2023-04-24T14:36:33;15.15;;;6.40;;
32242;SDS011;18731;42.830;24.390;2023-04-24T14:38:59;11.13;;;6.97;;
32242;SDS011;18731;42.830;24.390;2023-04-24T14:41:25;23.67;;;6.75;;
32242;SDS011;18731;42.830;24.390;2023-04-24T14:43:50;21.27;;;7.00;;
32242;SDS011;18731;42.830;24.390;2023-04-24T14:46:16;27.83;;;9.45;;
32242;SDS011;18731;42.830;24.390;2023-04-24T14:48:41;16.77;;;8.63;;
32242;SDS011;18731;42.830;24.390;2023-04-24T14:51:07;17.02;;;10.43;;
32242;SDS011;18731;42.830;24.390;2023-04-24T14:53:33;32.28;;;10.73;;
32242;SDS011;18731;42.830;24.390;2023-04-24T14:55:59;15.10;;;7.55;;
32242;SDS011;18731;42.830;24.390;2023-04-24T14:58:25;21.70;;;9.40;;
32242;SDS011;18731;42.830;24.390;2023-04-24T15:00:50;12.90;;;7.95;;
32242;SDS011;18731;42.830;24.390;2023-04-24T15:03:17;16.58;;;9.02;;
32242;SDS011;18731;42.830;24.390;2023-04-24T15:05:46;19.27;;;8.77;;
32242;SDS011;18731;42.830;24.390;2023-04-24T15:08:12;20.00;;;11.30;;
32242;SDS011;18731;42.830;24.390;2023-04-24T15:10:37;18.50;;;11.50;;
32242;SDS011;18731;42.830;24.390;2023-04-24T15:13:03;12.80;;;8.95;;
32242;SDS011;18731;42.830;24.390;2023-04-24T15:15:29;12.93;;;8.40;;
32242;SDS011;18731;42.830;24.390;2023-04-24T15:17:54;17.13;;;8.32;;
32242;SDS011;18731;42.830;24.390;2023-04-24T15:20:20;16.02;;;8.40;;
32242;SDS011;18731;42.830;24.390;2023-04-24T15:22:46;16.95;;;8.48;;
32242;SDS011;18731;42.830;24.390;2023-04-24T15:25:12;15.57;;;7.75;;
32242;SDS011;18731;42.830;24.390;2023-04-24T15:27:41;17.77;;;8.07;;
32242;SDS011;18731;42.830;24.390;2023-04-24T15:30:08;14.20;;;9.43;;
32242;SDS011;18731;42.830;24.390;2023-04-24T15:32:35;11.27;;;6.30;;
32242;SDS011;18731;42.830;24.390;2023-04-24T15:35:01;20.23;;;6.93;;
32242;SDS011;18731;42.830;24.390;2023-04-24T15:37:27;11.48;;;6.90;;
32242;SDS011;18731;42.830;24.390;2023-04-24T15:39:53;15.57;;;7.10;;
32242;SDS011;18731;42.830;24.390;2023-04-24T15:42:18;11.02;;;4.97;;
32242;SDS011;18731;42.830;24.390;2023-04-24T15:44:44;9.57;;;5.60;;
32242;SDS011;18731;42.830;24.390;2023-04-24T15:47:10;6.40;;;4.65;;
32242;SDS011;18731;42.830;24.390;2023-04-24T15:49:37;5.30;;;3.88;;
32242;SDS011;18731;42.830;24.390;2023-04-24T15:52:03;6.68;;;4.65;;
32242;SDS011;18731;42.830;24.390;2023-04-24T15:54:29;7.38;;;3.78;;
32242;SDS011;18731;42.830;24.390;2023-04-24T15:56:54;6.32;;;4.50;;
32242;SDS011;18731;42.830;24.390;2023-04-24T15:59:21;9.38;;;4.90;;
32242;SDS011;18731;42.830;24.390;2023-04-24T16:01:47;10.15;;;5.85;;
32242;SDS011;18731;42.830;24.390;2023-04-24T16:04:13;11.13;;;4.40;;
32242;SDS011;18731;42.830;24.390;2023-04-24T16:06:39;6.88;;;4.68;;
32242;SDS011;18731;42.830;24.390;2023-04-24T16:09:05;8.93;;;4.28;;
32242;SDS011;18731;42.830;24.390;2023-04-24T16:11:32;9.10;;;5.03;;
32242;SDS011;18731;42.830;24.390;2023-04-24T16:14:01;9.20;;;5.00;;
32242;SDS011;18731;42.830;24.390;2023-04-24T16:16:27;7.55;;;5.38;;
32242;SDS011;18731;42.830;24.390;2023-04-24T16:18:52;12.13;;;6.82;;
32242;SDS011;18731;42.830;24.390;2023-04-24T16:21:19;14.18;;;5.40;;
32242;SDS011;18731;42.830;24.390;2023-04-24T16:23:45;13.32;;;5.25;;
32242;SDS011;18731;42.830;24.390;2023-04-24T16:26:10;10.70;;;5.30;;
32242;SDS011;18731;42.830;24.390;2023-04-24T16:28:36;12.25;;;5.97;;
32242;SDS011;18731;42.830;24.390;2023-04-24T16:31:03;11.18;;;5.63;;
32242;SDS011;18731;42.830;24.390;2023-04-24T16:33:28;7.90;;;6.50;;
32242;SDS011;18731;42.830;24.390;2023-04-24T16:35:55;9.95;;;6.50;;
32242;SDS011;18731;42.830;24.390;2023-04-24T16:38:21;7.75;;;5.40;;
32242;SDS011;18731;42.830;24.390;2023-04-24T16:40:49;16.42;;;6.03;;
32242;SDS011;18731;42.830;24.390;2023-04-24T16:43:14;11.70;;;6.88;;
32242;SDS011;18731;42.830;24.390;2023-04-24T16:45:40;8.68;;;6.50;;
32242;SDS011;18731;42.830;24.390;2023-04-24T16:48:06;14.65;;;6.45;;
32242;SDS011;18731;42.830;24.390;2023-04-24T16:50:32;16.58;;;6.72;;
32242;SDS011;18731;42.830;24.390;2023-04-24T16:52:57;10.05;;;6.88;;
32242;SDS011;18731;42.830;24.390;2023-04-24T16:55:23;8.05;;;6.00;;
32242;SDS011;18731;42.830;24.390;2023-04-24T16:57:49;12.93;;;5.63;;
32242;SDS011;18731;42.830;24.390;2023-04-24T17:00:15;10.30;;;5.68;;
32242;SDS011;18731;42.830;24.390;2023-04-24T17:02:43;8.45;;;6.30;;
32242;SDS011;18731;42.830;24.390;2023-04-24T17:05:12;10.80;;;6.97;;
32242;SDS011;18731;42.830;24.390;2023-04-24T17:07:39;12.48;;;6.55;;
32242;SDS011;18731;42.830;24.390;2023-04-24T17:10:05;8.57;;;5.85;;
32242;SDS011;18731;42.830;24.390;2023-04-24T17:12:34;9.18;;;6.30;;
32242;SDS011;18731;42.830;24.390;2023-04-24T17:15:00;11.55;;;8.60;;
32242;SDS011;18731;42.830;24.390;2023-04-24T17:17:26;12.65;;;8.13;;
32242;SDS011;18731;42.830;24.390;2023-04-24T17:19:52;20.80;;;9.50;;
32242;SDS011;18731;42.830;24.390;2023-04-24T17:22:17;12.80;;;9.15;;
32242;SDS011;18731;42.830;24.390;2023-04-24T17:24:43;12.93;;;8.93;;
32242;SDS011;18731;42.830;24.390;2023-04-24T17:27:08;12.80;;;8.45;;
32242;SDS011;18731;42.830;24.390;2023-04-24T17:29:34;8.63;;;7.05;;
32242;SDS011;18731;42.830;24.390;2023-04-24T17:31:59;12.13;;;8.40;;
32242;SDS011;18731;42.830;24.390;2023-04-24T17:34:25;12.00;;;8.70;;
32242;SDS011;18731;42.830;24.390;2023-04-24T17:36:51;14.93;;;8.13;;
32242;SDS011;18731;42.830;24.390;2023-04-24T17:39:16;12.05;;;7.55;;
32242;SDS011;18731;42.830;24.390;2023-04-24T17:41:42;14.75;;;9.00;;
32242;SDS011;18731;42.830;24.390;2023-04-24T17:44:07;15.35;;;9.68;;
32242;SDS011;18731;42.830;24.390;2023-04-24T17:46:33;14.75;;;9.50;;
32242;SDS011;18731;42.830;24.390;2023-04-24T17:48:59;15.63;;;11.77;;
32242;SDS011;18731;42.830;24.390;2023-04-24T17:51:25;20.30;;;14.18;;
32242;SDS011;18731;42.830;24.390;2023-04-24T17:53:52;20.25;;;14.90;;